createdAt,value
2018-09-06T00:00:20.792Z,15.90
2018-09-06T00:02:48.755Z,15.90
2018-09-06T00:05:17.096Z,15.80
2018-09-06T00:07:44.981Z,15.90
2018-09-06T00:10:12.783Z,15.90
2018-09-06T00:12:40.571Z,15.90
2018-09-06T00:15:08.507Z,15.90
2018-09-06T00:17:36.304Z,15.80
2018-09-06T00:20:04.319Z,15.70
2018-09-06T00:22:32.134Z,15.70
2018-09-06T00:25:01.045Z,15.70
2018-09-06T00:27:28.959Z,15.70
2018-09-06T00:29:56.784Z,15.60
2018-09-06T00:32:24.615Z,15.60
2018-09-06T00:34:52.666Z,15.50
2018-09-06T00:37:22.544Z,15.40
2018-09-06T00:39:50.440Z,15.50
2018-09-06T00:42:18.226Z,15.50
2018-09-06T00:44:46.066Z,15.40
2018-09-06T00:47:13.944Z,15.30
2018-09-06T00:49:41.791Z,15.30
2018-09-06T00:52:09.612Z,15.40
2018-09-06T00:54:37.347Z,15.40
2018-09-06T00:57:05.167Z,15.40
2018-09-06T00:59:32.971Z,15.40
2018-09-06T01:02:00.736Z,15.20
2018-09-06T01:04:28.507Z,15.10
2018-09-06T01:06:56.237Z,15.00
2018-09-06T01:09:24.045Z,15.00
2018-09-06T01:11:51.895Z,15.00
2018-09-06T01:14:19.719Z,14.90
2018-09-06T01:16:47.551Z,14.90
2018-09-06T01:19:15.343Z,14.80
2018-09-06T01:21:43.128Z,14.80
2018-09-06T01:24:10.933Z,14.70
2018-09-06T01:26:38.755Z,14.60
2018-09-06T01:29:06.558Z,14.60
2018-09-06T01:31:34.412Z,14.60
2018-09-06T01:34:02.246Z,14.50
2018-09-06T01:36:35.779Z,14.50
2018-09-06T01:39:05.278Z,14.40
2018-09-06T01:41:33.096Z,14.40
2018-09-06T01:44:00.875Z,14.40
2018-09-06T01:46:28.623Z,14.40
2018-09-06T01:48:56.460Z,14.60
2018-09-06T01:51:24.266Z,14.60
2018-09-06T01:53:52.031Z,14.60
2018-09-06T01:56:20.115Z,14.50
2018-09-06T01:58:47.911Z,14.50
2018-09-06T02:01:15.959Z,14.40
2018-09-06T02:03:44.118Z,14.30
2018-09-06T02:06:11.919Z,14.30
2018-09-06T02:08:40.050Z,14.30
2018-09-06T02:11:07.880Z,14.30
2018-09-06T02:13:35.726Z,14.30
2018-09-06T02:16:03.574Z,14.20
2018-09-06T02:18:32.086Z,14.10
2018-09-06T02:20:59.952Z,14.10
2018-09-06T02:23:27.789Z,14.10
2018-09-06T02:25:55.683Z,14.10
2018-09-06T02:28:23.507Z,14.20
2018-09-06T02:30:51.381Z,14.20
2018-09-06T02:33:19.383Z,14.40
2018-09-06T02:35:47.154Z,14.50
2018-09-06T02:38:15.011Z,14.40
2018-09-06T02:40:42.731Z,14.40
2018-09-06T02:43:11.855Z,14.40
2018-09-06T02:45:40.310Z,14.40
2018-09-06T02:48:08.186Z,14.40
2018-09-06T02:50:41.876Z,14.40
2018-09-06T02:53:09.728Z,14.40
2018-09-06T02:55:37.559Z,14.40
2018-09-06T02:58:05.652Z,14.40
2018-09-06T03:00:35.815Z,14.30
2018-09-06T03:03:03.612Z,14.20
2018-09-06T03:05:31.422Z,14.20
2018-09-06T03:07:59.971Z,14.30
2018-09-06T03:10:30.847Z,14.30
2018-09-06T03:12:58.624Z,14.20
2018-09-06T03:15:26.471Z,14.20
2018-09-06T03:17:54.329Z,14.10
2018-09-06T03:20:22.118Z,14.10
2018-09-06T03:22:49.905Z,14.10
2018-09-06T03:25:17.660Z,14.10
2018-09-06T03:27:45.464Z,14.00
2018-09-06T03:30:13.321Z,14.00
2018-09-06T03:32:41.141Z,14.00
2018-09-06T03:35:09.423Z,13.90
2018-09-06T03:37:37.245Z,13.90
2018-09-06T03:40:05.199Z,14.00
2018-09-06T03:42:33.117Z,13.90
2018-09-06T03:45:00.843Z,14.00
2018-09-06T03:47:28.690Z,13.90
2018-09-06T03:49:56.576Z,14.00
2018-09-06T03:52:24.394Z,14.00
2018-09-06T03:54:56.098Z,14.00
2018-09-06T03:57:24.014Z,14.10
2018-09-06T03:59:51.867Z,14.10
2018-09-06T04:02:20.018Z,14.00
2018-09-06T04:04:47.846Z,13.90
2018-09-06T04:07:15.739Z,13.80
2018-09-06T04:09:43.509Z,13.80
2018-09-06T04:12:11.323Z,13.70
2018-09-06T04:14:39.110Z,13.70
2018-09-06T04:17:06.939Z,13.90
2018-09-06T04:19:34.803Z,13.80
2018-09-06T04:22:02.633Z,13.80
2018-09-06T04:24:30.388Z,13.80
2018-09-06T04:26:58.260Z,13.90
2018-09-06T04:29:26.019Z,13.80
2018-09-06T04:31:53.822Z,13.80
2018-09-06T04:34:21.626Z,13.80
2018-09-06T04:36:49.512Z,13.90
2018-09-06T04:39:18.775Z,13.80
2018-09-06T04:41:46.590Z,13.80
2018-09-06T04:44:14.537Z,13.80
2018-09-06T04:46:42.417Z,14.00
2018-09-06T04:49:10.467Z,13.90
2018-09-06T04:51:38.337Z,13.80
2018-09-06T04:54:06.431Z,13.90
2018-09-06T04:56:34.784Z,13.90
2018-09-06T04:59:02.634Z,14.00
2018-09-06T05:01:30.739Z,13.90
2018-09-06T05:03:58.574Z,14.00
2018-09-06T05:06:26.444Z,13.90
2018-09-06T05:08:54.239Z,13.90
2018-09-06T05:11:22.307Z,13.90
2018-09-06T05:13:50.101Z,13.90
2018-09-06T05:16:17.932Z,13.90
2018-09-06T05:18:46.070Z,14.00
2018-09-06T05:21:13.890Z,14.00
2018-09-06T05:23:41.955Z,14.10
2018-09-06T05:26:09.851Z,14.10
2018-09-06T05:28:37.729Z,14.40
2018-09-06T05:31:05.773Z,14.30
2018-09-06T05:33:33.663Z,14.40
2018-09-06T05:36:01.509Z,14.60
2018-09-06T05:38:29.310Z,14.70
2018-09-06T05:40:57.127Z,14.70
2018-09-06T05:43:24.883Z,14.80
2018-09-06T05:45:52.716Z,14.80
2018-09-06T05:48:20.452Z,14.80
2018-09-06T05:50:48.619Z,15.00
2018-09-06T05:53:16.345Z,15.20
2018-09-06T05:55:44.217Z,15.40
2018-09-06T05:58:12.111Z,15.60
2018-09-06T06:00:47.319Z,15.70
2018-09-06T06:03:15.217Z,15.90
2018-09-06T06:05:43.111Z,16.10
2018-09-06T06:08:28.408Z,16.20
2018-09-06T06:10:56.384Z,16.40
2018-09-06T06:13:24.251Z,16.60
2018-09-06T06:15:52.094Z,16.90
2018-09-06T06:18:19.895Z,17.10
2018-09-06T06:20:47.724Z,17.30
2018-09-06T06:23:15.596Z,17.40
2018-09-06T06:25:43.368Z,17.60
2018-09-06T06:28:11.207Z,17.70
2018-09-06T06:30:39.036Z,17.80
2018-09-06T06:33:06.885Z,18.00
2018-09-06T06:35:34.751Z,18.10
2018-09-06T06:38:02.596Z,18.20
2018-09-06T06:40:30.463Z,18.30
2018-09-06T06:42:58.264Z,18.40
2018-09-06T06:45:26.065Z,18.50
2018-09-06T06:47:53.919Z,18.60
2018-09-06T06:50:21.799Z,18.70
2018-09-06T06:52:49.597Z,18.80
2018-09-06T06:55:17.391Z,18.90
2018-09-06T06:57:45.285Z,19.00
2018-09-06T07:00:13.501Z,19.20
2018-09-06T07:02:41.292Z,19.30
2018-09-06T07:05:09.165Z,19.20
2018-09-06T07:07:36.888Z,19.10
2018-09-06T07:10:04.810Z,19.40
2018-09-06T07:12:32.633Z,19.60
2018-09-06T07:15:00.468Z,19.60
2018-09-06T07:17:28.319Z,19.70
2018-09-06T07:19:56.167Z,19.90
2018-09-06T07:22:23.951Z,19.90
2018-09-06T07:24:51.799Z,20.20
2018-09-06T07:27:19.649Z,20.30
2018-09-06T07:29:47.612Z,20.30
2018-09-06T07:32:15.416Z,20.30
2018-09-06T07:34:43.420Z,20.60
2018-09-06T07:37:12.325Z,20.40
2018-09-06T07:39:40.144Z,20.70
2018-09-06T07:42:07.944Z,20.80
2018-09-06T07:44:35.731Z,20.90
2018-09-06T07:47:03.488Z,21.10
2018-09-06T07:49:31.339Z,21.20
2018-09-06T07:51:59.180Z,21.50
2018-09-06T07:54:26.968Z,21.50
2018-09-06T07:56:54.788Z,21.50
2018-09-06T07:59:22.819Z,21.40
2018-09-06T08:01:50.595Z,21.80
2018-09-06T08:04:18.451Z,21.60
2018-09-06T08:06:46.349Z,21.40
2018-09-06T08:09:14.166Z,21.50
2018-09-06T08:11:41.988Z,21.80
2018-09-06T08:14:09.828Z,22.10
2018-09-06T08:16:44.439Z,22.00
2018-09-06T08:19:15.272Z,21.60
2018-09-06T08:21:43.080Z,22.00
2018-09-06T08:24:10.924Z,22.10
2018-09-06T08:26:39.139Z,22.30
2018-09-06T08:29:06.949Z,22.20
2018-09-06T08:31:34.804Z,22.50
2018-09-06T08:34:02.583Z,22.50
2018-09-06T08:36:30.419Z,22.90
2018-09-06T08:38:58.140Z,23.30
2018-09-06T08:41:25.967Z,23.40
2018-09-06T08:43:53.750Z,23.50
2018-09-06T08:46:21.580Z,23.60
2018-09-06T08:48:49.575Z,24.00
2018-09-06T08:51:17.435Z,24.20
2018-09-06T08:53:45.201Z,24.20
2018-09-06T08:56:13.048Z,24.40
2018-09-06T08:58:40.991Z,24.80
2018-09-06T09:01:14.486Z,24.50
2018-09-06T09:03:42.286Z,25.20
2018-09-06T09:06:10.235Z,25.30
2018-09-06T09:08:38.073Z,25.30
2018-09-06T09:11:05.990Z,25.20
2018-09-06T09:13:33.951Z,25.50
2018-09-06T09:16:01.783Z,25.40
2018-09-06T09:18:29.632Z,25.30
2018-09-06T09:20:57.470Z,25.80
2018-09-06T09:23:25.328Z,26.00
2018-09-06T09:25:53.179Z,25.50
2018-09-06T09:28:21.207Z,26.00
2018-09-06T09:30:49.134Z,26.00
2018-09-06T09:33:16.991Z,25.50
2018-09-06T09:35:44.880Z,26.30
2018-09-06T09:38:12.679Z,26.50
2018-09-06T09:40:40.532Z,25.90
2018-09-06T09:43:08.449Z,26.10
2018-09-06T09:45:36.308Z,26.70
2018-09-06T09:48:04.189Z,26.30
2018-09-06T09:52:59.499Z,26.30
2018-09-06T09:55:27.400Z,26.50
2018-09-06T09:57:55.235Z,26.20
2018-09-06T10:00:28.796Z,26.40
2018-09-06T10:03:02.426Z,26.00
2018-09-06T10:05:36.027Z,25.90
2018-09-06T10:08:08.467Z,25.60
2018-09-06T10:10:36.296Z,25.60
2018-09-06T10:13:04.219Z,25.70
2018-09-06T10:15:32.065Z,26.00
2018-09-06T10:17:59.859Z,26.40
2018-09-06T10:20:27.679Z,25.90
2018-09-06T10:22:55.540Z,25.50
2018-09-06T10:25:23.439Z,25.70
2018-09-06T10:27:51.344Z,24.90
2018-09-06T10:30:20.135Z,25.00
2018-09-06T10:32:47.930Z,25.20
2018-09-06T10:35:16.072Z,25.10
2018-09-06T10:37:44.030Z,24.80
2018-09-06T10:40:11.907Z,25.00
2018-09-06T10:42:41.055Z,24.90
2018-09-06T10:45:08.945Z,25.00
2018-09-06T10:47:36.705Z,24.90
2018-09-06T10:50:04.815Z,24.60
2018-09-06T10:52:32.812Z,24.40
2018-09-06T10:55:00.604Z,23.80
2018-09-06T10:57:28.507Z,23.80
2018-09-06T10:59:56.425Z,23.40
2018-09-06T11:02:24.507Z,23.30
2018-09-06T11:04:52.628Z,22.90
2018-09-06T11:07:20.752Z,23.00
2018-09-06T11:09:48.600Z,22.80
2018-09-06T11:12:16.423Z,22.70
2018-09-06T11:14:44.167Z,22.60
2018-09-06T11:17:12.028Z,22.60
2018-09-06T11:19:39.803Z,22.40
2018-09-06T11:22:07.843Z,22.30
2018-09-06T11:24:35.500Z,21.90
2018-09-06T11:27:03.373Z,21.90
2018-09-06T11:29:31.188Z,21.70
2018-09-06T11:32:00.296Z,21.60
2018-09-06T11:34:28.156Z,21.50
2018-09-06T11:36:56.072Z,21.80
2018-09-06T11:39:23.911Z,21.90
2018-09-06T11:41:51.864Z,21.90
2018-09-06T11:44:19.719Z,22.30
2018-09-06T11:46:47.709Z,22.40
2018-09-06T11:49:15.441Z,22.40
2018-09-06T11:51:43.371Z,22.40
2018-09-06T11:54:11.197Z,22.70
2018-09-06T11:56:39.318Z,22.70
2018-09-06T11:59:07.123Z,22.50
2018-09-06T12:01:34.989Z,22.70
2018-09-06T12:04:02.857Z,23.00
2018-09-06T12:06:30.688Z,23.30
2018-09-06T12:08:58.586Z,24.00
2018-09-06T12:11:26.421Z,24.40
2018-09-06T12:13:54.377Z,24.90
2018-09-06T12:16:23.147Z,25.30
2018-09-06T12:18:51.463Z,24.80
2018-09-06T12:21:19.255Z,24.60
2018-09-06T12:23:47.248Z,24.00
2018-09-06T12:26:15.119Z,24.70
2018-09-06T12:28:42.993Z,25.00
2018-09-06T12:31:10.839Z,24.90
2018-09-06T12:33:38.852Z,25.20
2018-09-06T12:36:06.691Z,25.10
2018-09-06T12:38:34.607Z,25.00
2018-09-06T12:41:02.406Z,24.80
2018-09-06T12:43:30.248Z,24.90
2018-09-06T12:45:58.583Z,24.60
2018-09-06T12:48:26.474Z,24.50
2018-09-06T12:50:54.231Z,24.90
2018-09-06T12:53:22.200Z,25.30
2018-09-06T12:55:50.028Z,24.80
2018-09-06T12:58:17.985Z,25.40
2018-09-06T13:00:46.545Z,25.60
2018-09-06T13:03:14.563Z,25.90
2018-09-06T13:05:42.473Z,26.30
2018-09-06T13:08:10.264Z,26.70
2018-09-06T13:10:38.087Z,27.00
2018-09-06T13:13:05.933Z,27.40
2018-09-06T13:15:33.739Z,27.30
2018-09-06T13:18:01.555Z,27.70
2018-09-06T13:20:29.352Z,27.50
2018-09-06T13:22:57.135Z,27.30
2018-09-06T13:25:25.075Z,27.40
2018-09-06T13:27:52.935Z,27.80
2018-09-06T13:30:20.718Z,27.90
2018-09-06T13:32:48.539Z,27.10
2018-09-06T13:35:16.449Z,27.20
2018-09-06T13:37:44.215Z,27.40
2018-09-06T13:40:12.027Z,27.10
2018-09-06T13:42:39.813Z,27.10
2018-09-06T13:45:07.751Z,27.40
2018-09-06T13:47:35.564Z,27.50
2018-09-06T13:50:03.612Z,27.30
2018-09-06T13:52:31.691Z,27.30
2018-09-06T13:54:59.463Z,27.30
2018-09-06T13:57:27.273Z,27.00
2018-09-06T13:59:55.076Z,27.10
2018-09-06T14:02:22.869Z,27.20
2018-09-06T14:04:50.679Z,27.10
2018-09-06T14:07:18.484Z,26.90
2018-09-06T14:09:46.334Z,27.00
2018-09-06T14:12:14.160Z,26.90
2018-09-06T14:14:41.947Z,26.90
2018-09-06T14:17:09.707Z,26.60
2018-09-06T14:19:37.467Z,26.60
2018-09-06T14:22:05.740Z,26.50
2018-09-06T14:24:33.461Z,26.10
2018-09-06T14:27:01.342Z,26.20
2018-09-06T14:29:29.111Z,26.10
2018-09-06T14:31:56.932Z,26.00
2018-09-06T14:34:24.840Z,26.00
2018-09-06T14:36:52.669Z,25.90
2018-09-06T14:39:21.061Z,25.60
2018-09-06T14:41:48.880Z,25.40
2018-09-06T14:44:16.691Z,25.60
2018-09-06T14:46:44.552Z,25.40
2018-09-06T14:49:12.352Z,25.70
2018-09-06T14:51:40.179Z,25.70
2018-09-06T14:54:07.940Z,25.50
2018-09-06T14:56:35.817Z,25.40
2018-09-06T14:59:03.671Z,25.40
2018-09-06T15:01:31.824Z,25.40
2018-09-06T15:03:59.552Z,25.30
2018-09-06T15:06:27.648Z,25.20
2018-09-06T15:08:55.527Z,25.30
2018-09-06T15:11:23.329Z,25.40
2018-09-06T15:13:51.119Z,25.40
2018-09-06T15:16:19.258Z,25.70
2018-09-06T15:18:47.467Z,25.50
2018-09-06T15:21:15.388Z,25.50
2018-09-06T15:23:43.232Z,25.40
2018-09-06T15:26:11.110Z,25.40
2018-09-06T15:28:38.903Z,25.80
2018-09-06T15:31:06.905Z,25.80
2018-09-06T15:33:34.749Z,25.90
2018-09-06T15:36:02.548Z,25.80
2018-09-06T15:38:30.407Z,26.00
2018-09-06T15:40:58.378Z,26.00
2018-09-06T15:43:26.371Z,26.10
2018-09-06T15:45:54.176Z,25.90
2018-09-06T15:48:22.641Z,25.70
2018-09-06T15:50:50.451Z,25.60
2018-09-06T15:53:18.352Z,25.70
2018-09-06T15:55:46.223Z,25.30
2018-09-06T15:58:13.999Z,25.40
2018-09-06T16:00:42.003Z,25.50
2018-09-06T16:03:10.039Z,25.50
2018-09-06T16:05:37.953Z,25.30
2018-09-06T16:08:05.761Z,25.30
2018-09-06T16:10:33.840Z,25.30
2018-09-06T16:13:02.021Z,25.20
2018-09-06T16:15:29.854Z,25.10
2018-09-06T16:17:57.844Z,25.10
2018-09-06T16:20:25.636Z,25.10
2018-09-06T16:22:54.016Z,24.60
2018-09-06T16:25:22.353Z,24.70
2018-09-06T16:27:50.143Z,24.60
2018-09-06T16:30:18.087Z,24.60
2018-09-06T16:32:45.892Z,24.70
2018-09-06T16:35:13.744Z,24.40
2018-09-06T16:37:41.503Z,24.40
2018-09-06T16:40:09.276Z,24.00
2018-09-06T16:42:37.137Z,24.20
2018-09-06T16:45:04.976Z,24.00
2018-09-06T16:47:32.797Z,23.80
2018-09-06T16:50:00.627Z,23.80
2018-09-06T16:52:28.518Z,23.70
2018-09-06T16:54:56.483Z,23.70
2018-09-06T16:57:24.299Z,23.50
2018-09-06T16:59:52.071Z,23.50
2018-09-06T17:02:19.875Z,23.40
2018-09-06T17:04:47.771Z,23.50
2018-09-06T17:07:15.886Z,23.40
2018-09-06T17:09:43.731Z,23.40
2018-09-06T17:12:11.535Z,23.40
2018-09-06T17:14:39.533Z,23.20
2018-09-06T17:17:07.739Z,23.10
2018-09-06T17:19:35.495Z,23.10
2018-09-06T17:22:03.359Z,23.10
2018-09-06T17:24:31.118Z,23.10
2018-09-06T17:26:58.927Z,23.00
2018-09-06T17:29:26.870Z,23.00
2018-09-06T17:31:55.587Z,23.00
2018-09-06T17:34:24.404Z,22.90
2018-09-06T17:36:52.240Z,22.90
2018-09-06T17:39:20.135Z,23.00
2018-09-06T17:41:47.909Z,22.80
2018-09-06T17:44:16.092Z,22.80
2018-09-06T17:46:44.399Z,22.80
2018-09-06T17:49:12.252Z,22.80
2018-09-06T17:51:40.086Z,22.80
2018-09-06T17:54:08.428Z,22.80
2018-09-06T17:56:36.281Z,22.70
2018-09-06T18:09:56.767Z,22.70
2018-09-06T18:12:24.620Z,22.30
2018-09-06T18:14:52.571Z,22.30
2018-09-06T18:17:20.476Z,22.30
2018-09-06T18:19:48.561Z,22.30
2018-09-06T18:22:16.514Z,22.20
2018-09-06T18:24:44.758Z,22.20
2018-09-06T18:27:12.735Z,22.10
2018-09-06T18:29:40.688Z,22.00
2018-09-06T18:32:08.713Z,22.00
2018-09-06T18:34:36.629Z,22.00
2018-09-06T18:37:04.445Z,21.90
2018-09-06T18:39:32.327Z,21.90
2018-09-06T18:42:00.204Z,21.90
2018-09-06T18:44:28.207Z,21.80
2018-09-06T18:46:56.112Z,21.80
2018-09-06T18:49:23.951Z,21.80
2018-09-06T18:51:51.816Z,21.70
2018-09-06T18:54:21.101Z,21.70
2018-09-06T18:56:48.984Z,21.60
2018-09-06T18:59:16.881Z,21.60
2018-09-06T19:01:44.683Z,21.50
2018-09-06T19:04:12.488Z,21.40
2018-09-06T19:06:40.278Z,21.50
2018-09-06T19:09:09.879Z,21.50
2018-09-06T19:11:37.675Z,21.40
2018-09-06T19:14:05.564Z,21.40
2018-09-06T19:16:34.648Z,21.30
2018-09-06T19:19:02.428Z,21.20
2018-09-06T19:21:37.043Z,21.20
2018-09-06T19:24:05.292Z,21.30
2018-09-06T19:26:36.094Z,21.20
2018-09-06T19:29:04.012Z,21.20
2018-09-06T19:31:31.834Z,21.00
2018-09-06T19:33:59.707Z,21.00
2018-09-06T19:36:27.586Z,20.90
2018-09-06T19:38:55.441Z,20.80
2018-09-06T19:41:23.324Z,20.70
2018-09-06T19:43:51.215Z,20.60
2018-09-06T19:46:19.073Z,20.60
2018-09-06T19:48:47.001Z,20.60
2018-09-06T19:51:14.788Z,20.40
2018-09-06T19:53:42.639Z,20.30
2018-09-06T19:56:10.424Z,20.20
2018-09-06T19:58:38.264Z,20.30
2018-09-06T20:01:06.142Z,20.30
2018-09-06T20:03:34.073Z,20.30
2018-09-06T20:06:01.971Z,20.30
2018-09-06T20:08:29.972Z,20.20
2018-09-06T20:10:57.846Z,20.30
2018-09-06T20:13:26.853Z,20.20
2018-09-06T20:15:54.608Z,20.20
2018-09-06T20:18:22.576Z,20.20
2018-09-06T20:20:50.991Z,20.30
2018-09-06T20:23:18.853Z,20.20
2018-09-06T20:25:46.739Z,20.30
2018-09-06T20:28:14.823Z,20.30
2018-09-06T20:30:42.691Z,20.20
2018-09-06T20:33:10.652Z,20.10
2018-09-06T20:35:38.568Z,20.10
2018-09-06T20:38:06.425Z,20.10
2018-09-06T20:40:34.295Z,20.10
2018-09-06T20:43:02.230Z,20.00
2018-09-06T20:45:30.480Z,20.00
2018-09-06T20:47:58.453Z,19.90
2018-09-06T20:50:26.440Z,19.90
2018-09-06T20:52:54.278Z,19.90
2018-09-06T20:55:22.378Z,20.00
2018-09-06T20:58:00.644Z,20.00
2018-09-06T21:00:30.555Z,20.00
2018-09-06T21:02:58.579Z,20.00
2018-09-06T21:05:26.557Z,20.00
2018-09-06T21:08:04.587Z,20.00
2018-09-06T21:10:32.571Z,20.00
2018-09-06T21:13:00.367Z,20.00
2018-09-06T21:15:28.160Z,20.00
2018-09-06T21:17:56.003Z,20.00
2018-09-06T21:20:23.941Z,19.90
2018-09-06T21:22:51.747Z,20.00
2018-09-06T21:25:19.564Z,19.90
2018-09-06T21:27:47.430Z,19.90
2018-09-06T21:30:15.279Z,19.80
2018-09-06T21:32:43.145Z,19.80
2018-09-06T21:35:11.098Z,19.80
2018-09-06T21:37:38.947Z,19.80
2018-09-06T21:40:08.024Z,19.70
2018-09-06T21:42:35.764Z,19.80
2018-09-06T21:45:03.602Z,19.70
2018-09-06T21:47:31.496Z,19.70
2018-09-06T21:49:59.572Z,19.80
2018-09-06T21:52:27.500Z,19.80
2018-09-06T21:54:55.364Z,19.80
2018-09-06T21:57:29.993Z,19.90
2018-09-06T21:59:58.534Z,19.90
2018-09-06T22:02:32.309Z,19.90
2018-09-06T22:05:00.195Z,19.80
2018-09-06T22:07:29.834Z,19.80
2018-09-06T22:09:57.891Z,19.80
2018-09-06T22:12:25.697Z,19.80
2018-09-06T22:14:53.530Z,19.70
2018-09-06T22:17:21.539Z,19.70
2018-09-06T22:19:49.504Z,19.60
2018-09-06T22:22:17.487Z,19.70
2018-09-06T22:24:45.563Z,19.60
2018-09-06T22:27:13.443Z,19.50
2018-09-06T22:29:41.376Z,19.40
2018-09-06T22:32:09.318Z,19.40
2018-09-06T22:34:37.342Z,19.40
2018-09-06T22:37:05.259Z,19.40
2018-09-06T22:39:33.247Z,19.30
2018-09-06T22:42:01.224Z,19.30
2018-09-06T22:44:29.433Z,19.20
2018-09-06T22:46:57.338Z,19.10
2018-09-06T22:49:25.257Z,19.10
2018-09-06T22:51:53.073Z,19.00
2018-09-06T22:54:21.527Z,18.90
2018-09-06T22:56:49.448Z,18.80
2018-09-06T22:59:17.905Z,18.80
2018-09-06T23:01:45.723Z,18.70
2018-09-06T23:04:14.857Z,18.60
2018-09-06T23:06:49.230Z,18.50
2018-09-06T23:09:17.140Z,18.40
2018-09-06T23:11:45.476Z,18.30
2018-09-06T23:14:13.451Z,18.30
2018-09-06T23:16:42.321Z,18.20
2018-09-06T23:19:10.273Z,18.30
2018-09-06T23:21:38.183Z,18.20
2018-09-06T23:24:06.089Z,18.20
2018-09-06T23:26:34.085Z,18.10
2018-09-06T23:29:01.891Z,18.10
2018-09-06T23:31:29.730Z,18.00
2018-09-06T23:33:57.485Z,17.90
2018-09-06T23:36:25.308Z,17.90
2018-09-06T23:38:53.251Z,17.90
2018-09-06T23:41:21.035Z,18.00
2018-09-06T23:43:48.895Z,18.00
2018-09-06T23:46:16.639Z,18.20
2018-09-06T23:48:44.515Z,18.10
2018-09-06T23:51:12.346Z,18.00
2018-09-06T23:53:40.151Z,18.00
2018-09-06T23:56:07.877Z,17.90
2018-09-06T23:58:35.648Z,17.80
